sensor_id;sensor_type;location;lat;lon;timestamp;pressure;altitude;pressure_sealevel;temperature;humidity
24558;BME280;12726;49.148;8.582;2024-01-06T00:02:44;99249.41;;;4.02;100.00
24558;BME280;12726;49.148;8.582;2024-01-06T00:05:29;99248.41;;;4.03;100.00
24558;BME280;12726;49.148;8.582;2024-01-06T00:08:15;99250.44;;;4.01;100.00
24558;BME280;12726;49.148;8.582;2024-01-06T00:11:00;99239.38;;;3.97;100.00
24558;BME280;12726;49.148;8.582;2024-01-06T00:13:47;99247.56;;;3.96;100.00
24558;BME280;12726;49.148;8.582;2024-01-06T00:16:33;99243.06;;;3.96;100.00
24558;BME280;12726;49.148;8.582;2024-01-06T00:19:19;99250.03;;;3.97;100.00
24558;BME280;12726;49.148;8.582;2024-01-06T00:22:05;99247.56;;;3.96;100.00
24558;BME280;12726;49.148;8.582;2024-01-06T00:24:50;99247.75;;;3.94;100.00
24558;BME280;12726;49.148;8.582;2024-01-06T00:27:35;99242.59;;;3.92;100.00
24558;BME280;12726;49.148;8.582;2024-01-06T00:30:21;99246.50;;;3.90;100.00
24558;BME280;12726;49.148;8.582;2024-01-06T00:33:06;99263.31;;;3.90;100.00
24558;BME280;12726;49.148;8.582;2024-01-06T00:35:53;99247.34;;;3.90;100.00
24558;BME280;12726;49.148;8.582;2024-01-06T00:38:39;99257.97;;;3.90;100.00
24558;BME280;12726;49.148;8.582;2024-01-06T00:41:25;99248.75;;;3.93;100.00
24558;BME280;12726;49.148;8.582;2024-01-06T00:44:10;99252.06;;;3.95;100.00
24558;BME280;12726;49.148;8.582;2024-01-06T00:46:56;99254.09;;;3.93;100.00
24558;BME280;12726;49.148;8.582;2024-01-06T00:49:41;99260.69;;;3.97;100.00
24558;BME280;12726;49.148;8.582;2024-01-06T00:52:28;99251.88;;;3.97;100.00
24558;BME280;12726;49.148;8.582;2024-01-06T00:55:13;99251.03;;;3.96;100.00
24558;BME280;12726;49.148;8.582;2024-01-06T00:57:58;99252.25;;;3.93;100.00
24558;BME280;12726;49.148;8.582;2024-01-06T01:00:44;99257.56;;;3.93;100.00
24558;BME280;12726;49.148;8.582;2024-01-06T01:03:29;99259.41;;;3.93;100.00
24558;BME280;12726;49.148;8.582;2024-01-06T01:06:15;99262.69;;;3.95;100.00
24558;BME280;12726;49.148;8.582;2024-01-06T01:09:02;99262.50;;;3.97;100.00
24558;BME280;12726;49.148;8.582;2024-01-06T01:11:48;99279.50;;;3.96;100.00
24558;BME280;12726;49.148;8.582;2024-01-06T01:14:33;99274.56;;;3.92;100.00
24558;BME280;12726;49.148;8.582;2024-01-06T01:17:19;99275.56;;;3.91;100.00
24558;BME280;12726;49.148;8.582;2024-01-06T01:20:06;99277.63;;;3.89;100.00
24558;BME280;12726;49.148;8.582;2024-01-06T01:22:51;99281.13;;;3.90;100.00
24558;BME280;12726;49.148;8.582;2024-01-06T01:25:38;99286.44;;;3.90;100.00
24558;BME280;12726;49.148;8.582;2024-01-06T01:28:23;99280.47;;;3.88;100.00
24558;BME280;12726;49.148;8.582;2024-01-06T01:31:08;99293.16;;;3.86;100.00
24558;BME280;12726;49.148;8.582;2024-01-06T01:33:54;99295.88;;;3.92;100.00
24558;BME280;12726;49.148;8.582;2024-01-06T01:36:39;99300.16;;;3.93;100.00
24558;BME280;12726;49.148;8.582;2024-01-06T01:39:25;99314.31;;;3.94;100.00
24558;BME280;12726;49.148;8.582;2024-01-06T01:42:11;99305.69;;;3.92;100.00
24558;BME280;12726;49.148;8.582;2024-01-06T01:44:56;99303.47;;;3.96;100.00
24558;BME280;12726;49.148;8.582;2024-01-06T01:47:42;99314.75;;;3.98;100.00
24558;BME280;12726;49.148;8.582;2024-01-06T01:50:29;99316.97;;;3.94;100.00
24558;BME280;12726;49.148;8.582;2024-01-06T01:53:15;99324.31;;;3.92;100.00
24558;BME280;12726;49.148;8.582;2024-01-06T01:56:01;99326.16;;;3.91;100.00
24558;BME280;12726;49.148;8.582;2024-01-06T01:58:49;99337.22;;;3.88;100.00
24558;BME280;12726;49.148;8.582;2024-01-06T02:01:34;99328.78;;;3.85;100.00
24558;BME280;12726;49.148;8.582;2024-01-06T02:04:19;99332.28;;;3.85;100.00
24558;BME280;12726;49.148;8.582;2024-01-06T02:07:05;99325.53;;;3.83;100.00
24558;BME280;12726;49.148;8.582;2024-01-06T02:09:50;99331.84;;;3.82;100.00
24558;BME280;12726;49.148;8.582;2024-01-06T02:12:35;99339.84;;;3.82;100.00
24558;BME280;12726;49.148;8.582;2024-01-06T02:15:22;99347.00;;;3.81;100.00
24558;BME280;12726;49.148;8.582;2024-01-06T02:18:09;99344.72;;;3.78;100.00
24558;BME280;12726;49.148;8.582;2024-01-06T02:20:58;99349.22;;;3.78;100.00
24558;BME280;12726;49.148;8.582;2024-01-06T02:23:44;99349.44;;;3.76;100.00
24558;BME280;12726;49.148;8.582;2024-01-06T02:26:30;99350.81;;;3.72;100.00
24558;BME280;12726;49.148;8.582;2024-01-06T02:29:15;99351.22;;;3.69;100.00
24558;BME280;12726;49.148;8.582;2024-01-06T02:32:01;99358.19;;;3.70;100.00
24558;BME280;12726;49.148;8.582;2024-01-06T02:34:46;99356.16;;;3.72;100.00
24558;BME280;12726;49.148;8.582;2024-01-06T02:37:31;99363.72;;;3.69;100.00
24558;BME280;12726;49.148;8.582;2024-01-06T02:40:18;99377.41;;;3.66;100.00
24558;BME280;12726;49.148;8.582;2024-01-06T02:43:03;99372.44;;;3.63;100.00
24558;BME280;12726;49.148;8.582;2024-01-06T02:45:49;99369.59;;;3.64;100.00
24558;BME280;12726;49.148;8.582;2024-01-06T02:48:34;99369.78;;;3.63;100.00
24558;BME280;12726;49.148;8.582;2024-01-06T02:51:20;99374.50;;;3.61;100.00
24558;BME280;12726;49.148;8.582;2024-01-06T02:54:05;99383.09;;;3.63;100.00
24558;BME280;12726;49.148;8.582;2024-01-06T02:56:52;99385.16;;;3.61;100.00
24558;BME280;12726;49.148;8.582;2024-01-06T02:59:37;99377.53;;;3.58;100.00
24558;BME280;12726;49.148;8.582;2024-01-06T03:02:23;99375.88;;;3.57;100.00
24558;BME280;12726;49.148;8.582;2024-01-06T03:05:09;99376.34;;;3.60;100.00
24558;BME280;12726;49.148;8.582;2024-01-06T03:07:54;99378.81;;;3.62;100.00
24558;BME280;12726;49.148;8.582;2024-01-06T03:10:39;99380.66;;;3.61;100.00
24558;BME280;12726;49.148;8.582;2024-01-06T03:13:26;99391.72;;;3.65;100.00
24558;BME280;12726;49.148;8.582;2024-01-06T03:16:11;99384.56;;;3.65;100.00
24558;BME280;12726;49.148;8.582;2024-01-06T03:18:56;99384.38;;;3.67;100.00
24558;BME280;12726;49.148;8.582;2024-01-06T03:21:42;99382.91;;;3.64;100.00
24558;BME280;12726;49.148;8.582;2024-01-06T03:24:27;99384.09;;;3.55;100.00
24558;BME280;12726;49.148;8.582;2024-01-06T03:27:13;99390.66;;;3.59;100.00
24558;BME280;12726;49.148;8.582;2024-01-06T03:29:59;99391.28;;;3.61;100.00
24558;BME280;12726;49.148;8.582;2024-01-06T03:32:45;99398.28;;;3.62;100.00
24558;BME280;12726;49.148;8.582;2024-01-06T03:35:30;99401.53;;;3.64;100.00
24558;BME280;12726;49.148;8.582;2024-01-06T03:38:15;99406.03;;;3.64;100.00
24558;BME280;12726;49.148;8.582;2024-01-06T03:41:01;99400.16;;;3.68;100.00
24558;BME280;12726;49.148;8.582;2024-01-06T03:43:46;99398.94;;;3.71;100.00
24558;BME280;12726;49.148;8.582;2024-01-06T03:46:34;99392.03;;;3.76;100.00
24558;BME280;12726;49.148;8.582;2024-01-06T03:49:20;99393.47;;;3.79;100.00
24558;BME280;12726;49.148;8.582;2024-01-06T03:52:05;99388.13;;;3.79;100.00
24558;BME280;12726;49.148;8.582;2024-01-06T03:54:51;99396.75;;;3.81;100.00
24558;BME280;12726;49.148;8.582;2024-01-06T03:57:36;99398.41;;;3.82;100.00
24558;BME280;12726;49.148;8.582;2024-01-06T04:00:21;99403.34;;;3.85;100.00
24558;BME280;12726;49.148;8.582;2024-01-06T04:03:08;99401.50;;;3.85;100.00
24558;BME280;12726;49.148;8.582;2024-01-06T04:05:53;99398.66;;;3.87;100.00
24558;BME280;12726;49.148;8.582;2024-01-06T04:08:39;99389.84;;;3.86;100.00
24558;BME280;12726;49.148;8.582;2024-01-06T04:11:25;99402.97;;;3.88;100.00
24558;BME280;12726;49.148;8.582;2024-01-06T04:14:10;99394.78;;;3.89;100.00
24558;BME280;12726;49.148;8.582;2024-01-06T04:16:56;99386.97;;;3.88;100.00
24558;BME280;12726;49.148;8.582;2024-01-06T04:19:43;99394.16;;;3.87;100.00
24558;BME280;12726;49.148;8.582;2024-01-06T04:22:28;99392.50;;;3.86;100.00
24558;BME280;12726;49.148;8.582;2024-01-06T04:25:14;99390.66;;;3.87;100.00
24558;BME280;12726;49.148;8.582;2024-01-06T04:27:59;99391.66;;;3.86;100.00
24558;BME280;12726;49.148;8.582;2024-01-06T04:30:44;99392.31;;;3.88;100.00
24558;BME280;12726;49.148;8.582;2024-01-06T04:33:29;99387.41;;;3.91;100.00
24558;BME280;12726;49.148;8.582;2024-01-06T04:36:16;99382.31;;;3.90;100.00
24558;BME280;12726;49.148;8.582;2024-01-06T04:39:01;99374.69;;;3.87;100.00
24558;BME280;12726;49.148;8.582;2024-01-06T04:41:47;99366.88;;;3.85;100.00
24558;BME280;12726;49.148;8.582;2024-01-06T04:44:32;99372.63;;;3.82;100.00
24558;BME280;12726;49.148;8.582;2024-01-06T04:47:18;99360.09;;;3.76;100.00
24558;BME280;12726;49.148;8.582;2024-01-06T04:50:03;99370.28;;;3.73;100.00
24558;BME280;12726;49.148;8.582;2024-01-06T04:52:50;99366.38;;;3.69;100.00
24558;BME280;12726;49.148;8.582;2024-01-06T04:55:36;99373.72;;;3.67;100.00
24558;BME280;12726;49.148;8.582;2024-01-06T04:58:21;99374.56;;;3.67;100.00
24558;BME280;12726;49.148;8.582;2024-01-06T05:01:06;99373.13;;;3.71;100.00
24558;BME280;12726;49.148;8.582;2024-01-06T05:03:52;99373.78;;;3.73;100.00
24558;BME280;12726;49.148;8.582;2024-01-06T05:06:37;99366.03;;;3.78;100.00
24558;BME280;12726;49.148;8.582;2024-01-06T05:09:24;99378.78;;;3.83;100.00
24558;BME280;12726;49.148;8.582;2024-01-06T05:12:09;99380.84;;;3.87;100.00
24558;BME280;12726;49.148;8.582;2024-01-06T05:14:54;99384.97;;;3.90;100.00
24558;BME280;12726;49.148;8.582;2024-01-06T05:17:40;99394.38;;;3.92;100.00
24558;BME280;12726;49.148;8.582;2024-01-06T05:20:25;99399.91;;;3.91;100.00
24558;BME280;12726;49.148;8.582;2024-01-06T05:23:11;99388.22;;;3.92;100.00
24558;BME280;12726;49.148;8.582;2024-01-06T05:25:57;99387.03;;;3.94;100.00
24558;BME280;12726;49.148;8.582;2024-01-06T05:28:43;99374.69;;;3.87;100.00
24558;BME280;12726;49.148;8.582;2024-01-06T05:31:28;99396.22;;;3.92;100.00
24558;BME280;12726;49.148;8.582;2024-01-06T05:34:13;99389.06;;;3.92;100.00
24558;BME280;12726;49.148;8.582;2024-01-06T05:36:59;99398.88;;;3.92;100.00
24558;BME280;12726;49.148;8.582;2024-01-06T05:39:44;99393.56;;;3.92;100.00
24558;BME280;12726;49.148;8.582;2024-01-06T05:45:26;99399.31;;;3.96;100.00
24558;BME280;12726;49.148;8.582;2024-01-06T05:48:12;99407.50;;;3.94;100.00
24558;BME280;12726;49.148;8.582;2024-01-06T05:50:57;99407.50;;;3.94;100.00
24558;BME280;12726;49.148;8.582;2024-01-06T05:53:42;99416.75;;;3.98;100.00
24558;BME280;12726;49.148;8.582;2024-01-06T05:56:28;99421.47;;;3.96;100.00
24558;BME280;12726;49.148;8.582;2024-01-06T05:59:13;99414.47;;;3.95;100.00
24558;BME280;12726;49.148;8.582;2024-01-06T06:02:00;99411.81;;;3.95;100.00
24558;BME280;12726;49.148;8.582;2024-01-06T06:04:45;99407.75;;;3.99;100.00
24558;BME280;12726;49.148;8.582;2024-01-06T06:07:30;99422.69;;;4.00;100.00
24558;BME280;12726;49.148;8.582;2024-01-06T06:10:15;99432.53;;;4.00;100.00
24558;BME280;12726;49.148;8.582;2024-01-06T06:13:02;99428.03;;;4.00;100.00
24558;BME280;12726;49.148;8.582;2024-01-06T06:15:47;99429.50;;;4.03;100.00
24558;BME280;12726;49.148;8.582;2024-01-06T06:18:34;99437.66;;;4.01;100.00
24558;BME280;12726;49.148;8.582;2024-01-06T06:21:19;99438.31;;;4.03;100.00
24558;BME280;12726;49.148;8.582;2024-01-06T06:24:05;99429.25;;;3.98;100.00
24558;BME280;12726;49.148;8.582;2024-01-06T06:26:50;99453.50;;;4.09;100.00
24558;BME280;12726;49.148;8.582;2024-01-06T06:29:36;99458.19;;;4.07;100.00
24558;BME280;12726;49.148;8.582;2024-01-06T06:32:22;99457.19;;;4.08;100.00
24558;BME280;12726;49.148;8.582;2024-01-06T06:35:09;99465.16;;;4.08;100.00
24558;BME280;12726;49.148;8.582;2024-01-06T06:37:54;99466.88;;;4.16;100.00
24558;BME280;12726;49.148;8.582;2024-01-06T06:40:39;99468.28;;;4.12;100.00
24558;BME280;12726;49.148;8.582;2024-01-06T06:43:24;99468.06;;;4.13;100.00
24558;BME280;12726;49.148;8.582;2024-01-06T06:46:10;99468.53;;;4.17;100.00
24558;BME280;12726;49.148;8.582;2024-01-06T06:48:55;99477.72;;;4.14;100.00
24558;BME280;12726;49.148;8.582;2024-01-06T06:51:42;99489.38;;;4.13;100.00
24558;BME280;12726;49.148;8.582;2024-01-06T06:54:31;99488.56;;;4.13;100.00
24558;BME280;12726;49.148;8.582;2024-01-06T06:57:16;99490.84;;;4.16;100.00
24558;BME280;12726;49.148;8.582;2024-01-06T07:00:01;99486.34;;;4.16;100.00
24558;BME280;12726;49.148;8.582;2024-01-06T07:02:47;99494.34;;;4.16;100.00
24558;BME280;12726;49.148;8.582;2024-01-06T07:05:32;99501.31;;;4.17;100.00
24558;BME280;12726;49.148;8.582;2024-01-06T07:08:19;99497.41;;;4.20;100.00
24558;BME280;12726;49.148;8.582;2024-01-06T07:11:04;99496.81;;;4.18;100.00
24558;BME280;12726;49.148;8.582;2024-01-06T07:13:50;99508.91;;;4.20;100.00
24558;BME280;12726;49.148;8.582;2024-01-06T07:16:35;99505.88;;;4.23;100.00
24558;BME280;12726;49.148;8.582;2024-01-06T07:19:21;99516.53;;;4.23;100.00
24558;BME280;12726;49.148;8.582;2024-01-06T07:22:06;99518.16;;;4.24;100.00
24558;BME280;12726;49.148;8.582;2024-01-06T07:24:53;99519.00;;;4.25;100.00
24558;BME280;12726;49.148;8.582;2024-01-06T07:27:41;99520.25;;;4.29;100.00
24558;BME280;12726;49.148;8.582;2024-01-06T07:30:26;99521.06;;;4.29;100.00
24558;BME280;12726;49.148;8.582;2024-01-06T07:33:12;99525.38;;;4.30;100.00
24558;BME280;12726;49.148;8.582;2024-01-06T07:35:57;99522.31;;;4.33;100.00
24558;BME280;12726;49.148;8.582;2024-01-06T07:38:42;99522.13;;;4.35;100.00
24558;BME280;12726;49.148;8.582;2024-01-06T07:41:31;99531.97;;;4.34;100.00
24558;BME280;12726;49.148;8.582;2024-01-06T07:44:16;99531.59;;;4.38;100.00
24558;BME280;12726;49.148;8.582;2024-01-06T07:47:06;99535.72;;;4.40;100.00
24558;BME280;12726;49.148;8.582;2024-01-06T07:49:52;99535.50;;;4.42;100.00
24558;BME280;12726;49.148;8.582;2024-01-06T07:52:38;99536.31;;;4.42;100.00
24558;BME280;12726;49.148;8.582;2024-01-06T07:55:24;99539.63;;;4.44;100.00
24558;BME280;12726;49.148;8.582;2024-01-06T07:58:13;99545.59;;;4.46;100.00
24558;BME280;12726;49.148;8.582;2024-01-06T08:00:59;99553.38;;;4.48;100.00
24558;BME280;12726;49.148;8.582;2024-01-06T08:03:45;99546.03;;;4.50;100.00
24558;BME280;12726;49.148;8.582;2024-01-06T08:06:31;99560.81;;;4.52;100.00
24558;BME280;12726;49.148;8.582;2024-01-06T08:09:19;99552.41;;;4.55;100.00
24558;BME280;12726;49.148;8.582;2024-01-06T08:12:05;99558.38;;;4.57;100.00
24558;BME280;12726;49.148;8.582;2024-01-06T08:14:54;99563.53;;;4.59;100.00
24558;BME280;12726;49.148;8.582;2024-01-06T08:17:39;99566.81;;;4.61;100.00
24558;BME280;12726;49.148;8.582;2024-01-06T08:20:25;99568.06;;;4.65;100.00
24558;BME280;12726;49.148;8.582;2024-01-06T08:23:11;99566.22;;;4.65;100.00
24558;BME280;12726;49.148;8.582;2024-01-06T08:25:56;99571.38;;;4.67;100.00
24558;BME280;12726;49.148;8.582;2024-01-06T08:28:42;99571.19;;;4.68;100.00
24558;BME280;12726;49.148;8.582;2024-01-06T08:31:29;99581.44;;;4.71;100.00
24558;BME280;12726;49.148;8.582;2024-01-06T08:34:17;99584.28;;;4.70;100.00
24558;BME280;12726;49.148;8.582;2024-01-06T08:37:03;99591.28;;;4.71;100.00
24558;BME280;12726;49.148;8.582;2024-01-06T08:39:48;99597.84;;;4.68;100.00
24558;BME280;12726;49.148;8.582;2024-01-06T08:42:34;99612.19;;;4.67;100.00
24558;BME280;12726;49.148;8.582;2024-01-06T08:45:19;99600.28;;;4.70;100.00
24558;BME280;12726;49.148;8.582;2024-01-06T08:48:07;99605.25;;;4.73;100.00
24558;BME280;12726;49.148;8.582;2024-01-06T08:50:52;99592.34;;;4.77;100.00
24558;BME280;12726;49.148;8.582;2024-01-06T08:53:37;99604.63;;;4.71;100.00
24558;BME280;12726;49.148;8.582;2024-01-06T08:56:23;99613.44;;;4.71;100.00
24558;BME280;12726;49.148;8.582;2024-01-06T08:59:08;99607.91;;;4.73;100.00
24558;BME280;12726;49.148;8.582;2024-01-06T09:01:54;99604.47;;;4.79;100.00
24558;BME280;12726;49.148;8.582;2024-01-06T09:04:42;99608.38;;;4.83;100.00
24558;BME280;12726;49.148;8.582;2024-01-06T09:07:27;99613.53;;;4.85;100.00
24558;BME280;12726;49.148;8.582;2024-01-06T09:10:12;99612.31;;;4.87;100.00
24558;BME280;12726;49.148;8.582;2024-01-06T09:12:58;99618.47;;;4.88;100.00
24558;BME280;12726;49.148;8.582;2024-01-06T09:15:44;99617.66;;;4.87;100.00
24558;BME280;12726;49.148;8.582;2024-01-06T09:18:29;99613.16;;;4.88;100.00
24558;BME280;12726;49.148;8.582;2024-01-06T09:21:17;99606.81;;;4.89;100.00
24558;BME280;12726;49.148;8.582;2024-01-06T09:24:03;99611.50;;;4.87;100.00
24558;BME280;12726;49.148;8.582;2024-01-06T09:26:50;99615.81;;;4.88;100.00
24558;BME280;12726;49.148;8.582;2024-01-06T09:29:38;99627.13;;;4.90;100.00
24558;BME280;12726;49.148;8.582;2024-01-06T09:32:24;99622.41;;;4.92;100.00
24558;BME280;12726;49.148;8.582;2024-01-06T09:35:09;99630.81;;;4.89;100.00
24558;BME280;12726;49.148;8.582;2024-01-06T09:37:56;99632.19;;;4.85;100.00
24558;BME280;12726;49.148;8.582;2024-01-06T09:40:43;99627.03;;;4.83;100.00
24558;BME280;12726;49.148;8.582;2024-01-06T09:43:30;99637.53;;;4.85;100.00
24558;BME280;12726;49.148;8.582;2024-01-06T09:46:20;99641.03;;;4.85;100.00
24558;BME280;12726;49.148;8.582;2024-01-06T09:49:06;99636.31;;;4.87;100.00
24558;BME280;12726;49.148;8.582;2024-01-06T09:51:58;99635.13;;;4.90;100.00
24558;BME280;12726;49.148;8.582;2024-01-06T09:54:49;99629.38;;;4.93;100.00
24558;BME280;12726;49.148;8.582;2024-01-06T09:57:36;99630.22;;;4.93;100.00
24558;BME280;12726;49.148;8.582;2024-01-06T10:00:21;99644.75;;;4.91;100.00
24558;BME280;12726;49.148;8.582;2024-01-06T10:03:07;99649.53;;;4.95;100.00
24558;BME280;12726;49.148;8.582;2024-01-06T10:05:53;99645.19;;;4.94;100.00
24558;BME280;12726;49.148;8.582;2024-01-06T10:08:42;99651.53;;;4.93;100.00
24558;BME280;12726;49.148;8.582;2024-01-06T10:11:29;99650.53;;;4.94;100.00
24558;BME280;12726;49.148;8.582;2024-01-06T10:14:14;99644.00;;;4.97;100.00
24558;BME280;12726;49.148;8.582;2024-01-06T10:16:59;99639.91;;;5.01;100.00
24558;BME280;12726;49.148;8.582;2024-01-06T10:19:45;99643.44;;;5.08;100.00
24558;BME280;12726;49.148;8.582;2024-01-06T10:22:31;99645.72;;;5.11;100.00
24558;BME280;12726;49.148;8.582;2024-01-06T10:25:17;99646.34;;;5.13;100.00
24558;BME280;12726;49.148;8.582;2024-01-06T10:28:04;99641.25;;;5.18;100.00
24558;BME280;12726;49.148;8.582;2024-01-06T10:30:51;99653.38;;;5.21;100.00
24558;BME280;12726;49.148;8.582;2024-01-06T10:33:38;99652.16;;;5.23;100.00
24558;BME280;12726;49.148;8.582;2024-01-06T10:36:24;99636.97;;;5.24;100.00
24558;BME280;12726;49.148;8.582;2024-01-06T10:39:11;99646.22;;;5.28;100.00
24558;BME280;12726;49.148;8.582;2024-01-06T10:42:00;99647.88;;;5.29;100.00
24558;BME280;12726;49.148;8.582;2024-01-06T10:44:48;99651.00;;;5.32;100.00
24558;BME280;12726;49.148;8.582;2024-01-06T10:47:35;99640.09;;;5.34;100.00
24558;BME280;12726;49.148;8.582;2024-01-06T10:50:21;99645.66;;;5.32;100.00
24558;BME280;12726;49.148;8.582;2024-01-06T10:53:07;99644.59;;;5.33;100.00
24558;BME280;12726;49.148;8.582;2024-01-06T10:55:53;99644.59;;;5.33;100.00
24558;BME280;12726;49.148;8.582;2024-01-06T10:58:39;99655.28;;;5.33;100.00
24558;BME280;12726;49.148;8.582;2024-01-06T11:01:32;99652.81;;;5.32;100.00
24558;BME280;12726;49.148;8.582;2024-01-06T11:04:19;99656.69;;;5.29;100.00
24558;BME280;12726;49.148;8.582;2024-01-06T11:07:06;99661.66;;;5.32;100.00
24558;BME280;12726;49.148;8.582;2024-01-06T11:09:55;99656.94;;;5.34;100.00
24558;BME280;12726;49.148;8.582;2024-01-06T11:12:41;99642.56;;;5.35;100.00
24558;BME280;12726;49.148;8.582;2024-01-06T11:15:40;99641.13;;;5.33;100.00
24558;BME280;12726;49.148;8.582;2024-01-06T11:18:37;99643.41;;;5.36;100.00
24558;BME280;12726;49.148;8.582;2024-01-06T11:21:22;99640.09;;;5.34;100.00
24558;BME280;12726;49.148;8.582;2024-01-06T11:24:17;99639.06;;;5.35;100.00
24558;BME280;12726;49.148;8.582;2024-01-06T11:27:05;99632.31;;;5.32;100.00
24558;BME280;12726;49.148;8.582;2024-01-06T11:29:53;99632.31;;;5.32;100.00
24558;BME280;12726;49.148;8.582;2024-01-06T11:32:39;99632.53;;;5.37;100.00
24558;BME280;12726;49.148;8.582;2024-01-06T11:35:27;99629.88;;;5.44;100.00
24558;BME280;12726;49.148;8.582;2024-01-06T11:38:13;99623.94;;;5.48;100.00
24558;BME280;12726;49.148;8.582;2024-01-06T11:40:59;99631.38;;;5.53;100.00
24558;BME280;12726;49.148;8.582;2024-01-06T11:43:45;99633.25;;;5.59;100.00
24558;BME280;12726;49.148;8.582;2024-01-06T11:46:30;99631.41;;;5.60;100.00
24558;BME280;12726;49.148;8.582;2024-01-06T11:49:16;99625.25;;;5.59;100.00
24558;BME280;12726;49.148;8.582;2024-01-06T11:52:03;99632.22;;;5.60;100.00
24558;BME280;12726;49.148;8.582;2024-01-06T11:54:49;99628.31;;;5.63;100.00
24558;BME280;12726;49.148;8.582;2024-01-06T11:57:35;99631.22;;;5.68;100.00
24558;BME280;12726;49.148;8.582;2024-01-06T12:00:20;99629.59;;;5.73;100.00
24558;BME280;12726;49.148;8.582;2024-01-06T12:03:05;99627.59;;;5.82;100.00
24558;BME280;12726;49.148;8.582;2024-01-06T12:05:59;99631.97;;;5.89;100.00
24558;BME280;12726;49.148;8.582;2024-01-06T12:08:46;99622.91;;;5.90;100.00
24558;BME280;12726;49.148;8.582;2024-01-06T12:11:31;99627.59;;;5.82;100.00
24558;BME280;12726;49.148;8.582;2024-01-06T12:14:17;99625.31;;;5.85;100.00
24558;BME280;12726;49.148;8.582;2024-01-06T12:17:04;99616.13;;;5.88;100.00
24558;BME280;12726;49.148;8.582;2024-01-06T12:19:49;99609.16;;;5.94;100.00
24558;BME280;12726;49.148;8.582;2024-01-06T12:22:34;99620.66;;;5.94;100.00
24558;BME280;12726;49.148;8.582;2024-01-06T12:25:22;99611.00;;;5.93;100.00
24558;BME280;12726;49.148;8.582;2024-01-06T12:28:07;99613.66;;;5.93;100.00
24558;BME280;12726;49.148;8.582;2024-01-06T12:30:53;99603.00;;;6.00;100.00
24558;BME280;12726;49.148;8.582;2024-01-06T12:33:39;99613.88;;;6.05;100.00
24558;BME280;12726;49.148;8.582;2024-01-06T12:36:24;99608.13;;;6.01;100.00
24558;BME280;12726;49.148;8.582;2024-01-06T12:39:11;99613.66;;;5.93;100.00
24558;BME280;12726;49.148;8.582;2024-01-06T12:42:01;99618.19;;;5.93;100.00
24558;BME280;12726;49.148;8.582;2024-01-06T12:44:46;99620.63;;;5.87;100.00
24558;BME280;12726;49.148;8.582;2024-01-06T12:47:32;99621.00;;;5.84;100.00
24558;BME280;12726;49.148;8.582;2024-01-06T12:50:17;99622.81;;;5.77;100.00
24558;BME280;12726;49.148;8.582;2024-01-06T12:53:03;99623.47;;;5.79;100.00
24558;BME280;12726;49.148;8.582;2024-01-06T12:55:49;99626.75;;;5.81;100.00
24558;BME280;12726;49.148;8.582;2024-01-06T12:58:35;99618.31;;;5.78;100.00
24558;BME280;12726;49.148;8.582;2024-01-06T13:01:21;99619.31;;;5.77;100.00
24558;BME280;12726;49.148;8.582;2024-01-06T13:04:06;99626.50;;;5.76;100.00
24558;BME280;12726;49.148;8.582;2024-01-06T13:06:52;99630.84;;;5.77;100.00
24558;BME280;12726;49.148;8.582;2024-01-06T13:09:37;99636.19;;;5.77;100.00
24558;BME280;12726;49.148;8.582;2024-01-06T13:12:22;99630.84;;;5.77;100.00
24558;BME280;12726;49.148;8.582;2024-01-06T13:15:10;99622.81;;;5.77;100.00
24558;BME280;12726;49.148;8.582;2024-01-06T13:17:55;99631.25;;;5.74;100.00
24558;BME280;12726;49.148;8.582;2024-01-06T13:20:44;99629.78;;;5.72;100.00
24558;BME280;12726;49.148;8.582;2024-01-06T13:23:29;99625.47;;;5.71;100.00
24558;BME280;12726;49.148;8.582;2024-01-06T13:26:14;99630.78;;;5.64;100.00
24558;BME280;12726;49.148;8.582;2024-01-06T13:29:00;99633.47;;;5.64;100.00
24558;BME280;12726;49.148;8.582;2024-01-06T13:31:47;99635.13;;;5.65;100.00
24558;BME280;12726;49.148;8.582;2024-01-06T13:34:33;99635.13;;;5.65;100.00
24558;BME280;12726;49.148;8.582;2024-01-06T13:37:18;99640.06;;;5.68;100.00
24558;BME280;12726;49.148;8.582;2024-01-06T13:40:04;99643.16;;;5.72;100.00
24558;BME280;12726;49.148;8.582;2024-01-06T13:42:53;99637.81;;;5.72;100.00
24558;BME280;12726;49.148;8.582;2024-01-06T13:45:39;99631.03;;;5.76;100.00
24558;BME280;12726;49.148;8.582;2024-01-06T13:48:27;99636.19;;;5.84;100.00
24558;BME280;12726;49.148;8.582;2024-01-06T13:51:12;99638.47;;;5.87;100.00
24558;BME280;12726;49.148;8.582;2024-01-06T13:53:58;99640.16;;;5.88;100.00
24558;BME280;12726;49.148;8.582;2024-01-06T13:56:43;99640.31;;;5.86;100.00
24558;BME280;12726;49.148;8.582;2024-01-06T13:59:29;99644.50;;;5.89;100.00
24558;BME280;12726;49.148;8.582;2024-01-06T14:02:14;99644.69;;;5.87;100.00
24558;BME280;12726;49.148;8.582;2024-01-06T14:05:01;99651.00;;;5.86;100.00
24558;BME280;12726;49.148;8.582;2024-01-06T14:07:46;99652.69;;;5.87;100.00
24558;BME280;12726;49.148;8.582;2024-01-06T14:10:34;99646.28;;;5.82;100.00
24558;BME280;12726;49.148;8.582;2024-01-06T14:13:19;99650.34;;;5.78;100.00
24558;BME280;12726;49.148;8.582;2024-01-06T14:16:05;99655.69;;;5.71;100.00
24558;BME280;12726;49.148;8.582;2024-01-06T14:18:50;99653.41;;;5.68;100.00
24558;BME280;12726;49.148;8.582;2024-01-06T14:21:37;99650.94;;;5.67;100.00
24558;BME280;12726;49.148;8.582;2024-01-06T14:24:22;99655.84;;;5.63;100.00
24558;BME280;12726;49.148;8.582;2024-01-06T14:27:08;99659.34;;;5.64;100.00
24558;BME280;12726;49.148;8.582;2024-01-06T14:29:57;99663.03;;;5.63;100.00
24558;BME280;12726;49.148;8.582;2024-01-06T14:32:42;99658.94;;;5.60;100.00
24558;BME280;12726;49.148;8.582;2024-01-06T14:35:27;99669.16;;;5.57;100.00
24558;BME280;12726;49.148;8.582;2024-01-06T14:38:14;99659.72;;;5.54;100.00
24558;BME280;12726;49.148;8.582;2024-01-06T14:40:59;99675.13;;;5.52;100.00
24558;BME280;12726;49.148;8.582;2024-01-06T14:43:45;99674.47;;;5.50;100.00